sensor_id;sensor_type;location;lat;lon;timestamp;P1;durP1;ratioP1;P2;durP2;ratioP2
4047;SDS011;2038;51.728;6.674;2023-06-14T00:01:08;9.70;;;6.27;;
4047;SDS011;2038;51.728;6.674;2023-06-14T00:03:34;9.63;;;6.50;;
4047;SDS011;2038;51.728;6.674;2023-06-14T00:06:00;14.23;;;5.90;;
4047;SDS011;2038;51.728;6.674;2023-06-14T00:08:27;12.93;;;6.40;;
4047;SDS011;2038;51.728;6.674;2023-06-14T00:10:53;14.23;;;6.67;;
4047;SDS011;2038;51.728;6.674;2023-06-14T00:13:19;7.20;;;5.57;;
4047;SDS011;2038;51.728;6.674;2023-06-14T00:15:45;8.70;;;4.93;;
4047;SDS011;2038;51.728;6.674;2023-06-14T00:18:12;9.00;;;5.43;;
4047;SDS011;2038;51.728;6.674;2023-06-14T00:20:39;11.20;;;5.80;;
4047;SDS011;2038;51.728;6.674;2023-06-14T00:23:07;11.03;;;6.00;;
4047;SDS011;2038;51.728;6.674;2023-06-14T00:25:33;8.87;;;6.10;;
4047;SDS011;2038;51.728;6.674;2023-06-14T00:27:59;12.47;;;5.67;;
4047;SDS011;2038;51.728;6.674;2023-06-14T00:30:26;14.70;;;5.73;;
4047;SDS011;2038;51.728;6.674;2023-06-14T00:32:55;7.17;;;4.77;;
4047;SDS011;2038;51.728;6.674;2023-06-14T00:35:22;7.67;;;5.27;;
4047;SDS011;2038;51.728;6.674;2023-06-14T00:37:48;6.90;;;5.70;;
4047;SDS011;2038;51.728;6.674;2023-06-14T00:40:15;6.33;;;5.60;;
4047;SDS011;2038;51.728;6.674;2023-06-14T00:42:41;7.17;;;5.30;;
4047;SDS011;2038;51.728;6.674;2023-06-14T00:45:07;6.70;;;5.10;;
4047;SDS011;2038;51.728;6.674;2023-06-14T00:47:35;7.00;;;5.20;;
4047;SDS011;2038;51.728;6.674;2023-06-14T00:50:05;6.23;;;5.60;;
4047;SDS011;2038;51.728;6.674;2023-06-14T00:52:33;8.03;;;5.90;;
4047;SDS011;2038;51.728;6.674;2023-06-14T00:55:00;10.53;;;5.30;;
4047;SDS011;2038;51.728;6.674;2023-06-14T00:57:27;7.53;;;5.40;;
4047;SDS011;2038;51.728;6.674;2023-06-14T00:59:54;7.23;;;5.40;;
4047;SDS011;2038;51.728;6.674;2023-06-14T01:02:21;12.33;;;5.13;;
4047;SDS011;2038;51.728;6.674;2023-06-14T01:04:48;6.07;;;4.83;;
4047;SDS011;2038;51.728;6.674;2023-06-14T01:15:52;7.10;;;6.10;;
4047;SDS011;2038;51.728;6.674;2023-06-14T01:18:20;7.93;;;5.73;;
4047;SDS011;2038;51.728;6.674;2023-06-14T01:20:49;7.90;;;5.27;;
4047;SDS011;2038;51.728;6.674;2023-06-14T01:23:19;7.77;;;5.37;;
4047;SDS011;2038;51.728;6.674;2023-06-14T01:25:47;6.60;;;4.87;;
4047;SDS011;2038;51.728;6.674;2023-06-14T01:28:18;8.70;;;5.23;;
4047;SDS011;2038;51.728;6.674;2023-06-14T01:30:46;6.03;;;4.87;;
4047;SDS011;2038;51.728;6.674;2023-06-14T01:33:20;6.70;;;4.73;;
4047;SDS011;2038;51.728;6.674;2023-06-14T01:35:51;5.60;;;4.67;;
4047;SDS011;2038;51.728;6.674;2023-06-14T01:38:21;7.03;;;5.40;;
4047;SDS011;2038;51.728;6.674;2023-06-14T01:40:51;8.20;;;5.23;;
4047;SDS011;2038;51.728;6.674;2023-06-14T01:43:20;8.70;;;5.63;;
4047;SDS011;2038;51.728;6.674;2023-06-14T01:45:48;7.80;;;5.03;;
4047;SDS011;2038;51.728;6.674;2023-06-14T01:48:17;7.47;;;5.10;;
4047;SDS011;2038;51.728;6.674;2023-06-14T01:50:45;6.60;;;5.47;;
4047;SDS011;2038;51.728;6.674;2023-06-14T01:53:12;4.83;;;4.33;;
4047;SDS011;2038;51.728;6.674;2023-06-14T01:55:38;5.87;;;5.17;;
4047;SDS011;2038;51.728;6.674;2023-06-14T01:58:08;6.30;;;4.53;;
4047;SDS011;2038;51.728;6.674;2023-06-14T02:00:35;9.97;;;5.07;;
4047;SDS011;2038;51.728;6.674;2023-06-14T02:03:02;6.90;;;5.87;;
4047;SDS011;2038;51.728;6.674;2023-06-14T02:05:31;6.00;;;4.23;;
4047;SDS011;2038;51.728;6.674;2023-06-14T02:07:57;7.67;;;4.70;;
4047;SDS011;2038;51.728;6.674;2023-06-14T02:10:23;6.57;;;4.47;;
4047;SDS011;2038;51.728;6.674;2023-06-14T02:12:49;7.43;;;4.83;;
4047;SDS011;2038;51.728;6.674;2023-06-14T02:15:16;10.00;;;5.70;;
4047;SDS011;2038;51.728;6.674;2023-06-14T02:17:46;7.60;;;5.20;;
4047;SDS011;2038;51.728;6.674;2023-06-14T02:20:14;6.80;;;4.53;;
4047;SDS011;2038;51.728;6.674;2023-06-14T02:22:40;9.23;;;5.17;;
4047;SDS011;2038;51.728;6.674;2023-06-14T02:25:07;6.57;;;4.93;;
4047;SDS011;2038;51.728;6.674;2023-06-14T02:27:34;7.50;;;5.33;;
4047;SDS011;2038;51.728;6.674;2023-06-14T02:30:00;6.50;;;5.47;;
4047;SDS011;2038;51.728;6.674;2023-06-14T02:32:27;7.60;;;5.43;;
4047;SDS011;2038;51.728;6.674;2023-06-14T02:34:53;7.50;;;5.03;;
4047;SDS011;2038;51.728;6.674;2023-06-14T02:37:19;5.87;;;4.70;;
4047;SDS011;2038;51.728;6.674;2023-06-14T02:39:46;6.43;;;5.00;;
4047;SDS011;2038;51.728;6.674;2023-06-14T02:42:13;10.40;;;5.27;;
4047;SDS011;2038;51.728;6.674;2023-06-14T02:44:39;9.03;;;4.80;;
4047;SDS011;2038;51.728;6.674;2023-06-14T02:47:05;6.67;;;5.30;;
4047;SDS011;2038;51.728;6.674;2023-06-14T02:49:31;12.47;;;5.57;;
4047;SDS011;2038;51.728;6.674;2023-06-14T02:51:58;8.57;;;5.17;;
4047;SDS011;2038;51.728;6.674;2023-06-14T02:54:24;8.63;;;5.10;;
4047;SDS011;2038;51.728;6.674;2023-06-14T02:56:51;9.83;;;4.37;;
4047;SDS011;2038;51.728;6.674;2023-06-14T02:59:17;9.40;;;4.63;;
4047;SDS011;2038;51.728;6.674;2023-06-14T03:01:44;7.40;;;4.70;;
4047;SDS011;2038;51.728;6.674;2023-06-14T03:04:11;8.43;;;4.60;;
4047;SDS011;2038;51.728;6.674;2023-06-14T03:06:37;16.17;;;5.50;;
4047;SDS011;2038;51.728;6.674;2023-06-14T03:09:04;6.33;;;4.50;;
4047;SDS011;2038;51.728;6.674;2023-06-14T03:11:31;8.07;;;4.90;;
4047;SDS011;2038;51.728;6.674;2023-06-14T03:13:58;5.30;;;4.60;;
4047;SDS011;2038;51.728;6.674;2023-06-14T03:16:25;4.40;;;3.90;;
4047;SDS011;2038;51.728;6.674;2023-06-14T03:18:53;7.00;;;4.47;;
4047;SDS011;2038;51.728;6.674;2023-06-14T03:21:20;14.53;;;7.00;;
4047;SDS011;2038;51.728;6.674;2023-06-14T03:23:47;8.33;;;4.17;;
4047;SDS011;2038;51.728;6.674;2023-06-14T03:26:14;8.63;;;4.90;;
4047;SDS011;2038;51.728;6.674;2023-06-14T03:28:43;9.10;;;4.90;;
4047;SDS011;2038;51.728;6.674;2023-06-14T03:31:11;6.80;;;4.80;;
4047;SDS011;2038;51.728;6.674;2023-06-14T03:33:38;7.90;;;4.50;;
4047;SDS011;2038;51.728;6.674;2023-06-14T03:36:05;7.47;;;4.50;;
4047;SDS011;2038;51.728;6.674;2023-06-14T03:38:31;9.90;;;4.80;;
4047;SDS011;2038;51.728;6.674;2023-06-14T03:40:58;8.30;;;4.40;;
4047;SDS011;2038;51.728;6.674;2023-06-14T03:43:25;5.60;;;5.03;;
4047;SDS011;2038;51.728;6.674;2023-06-14T03:45:52;8.33;;;5.07;;
4047;SDS011;2038;51.728;6.674;2023-06-14T03:48:18;13.20;;;4.83;;
4047;SDS011;2038;51.728;6.674;2023-06-14T03:50:44;5.10;;;3.60;;
4047;SDS011;2038;51.728;6.674;2023-06-14T03:53:11;9.60;;;5.20;;
4047;SDS011;2038;51.728;6.674;2023-06-14T03:55:37;10.03;;;4.53;;
4047;SDS011;2038;51.728;6.674;2023-06-14T03:58:04;9.13;;;5.27;;
4047;SDS011;2038;51.728;6.674;2023-06-14T04:00:31;5.43;;;4.03;;
4047;SDS011;2038;51.728;6.674;2023-06-14T04:02:57;6.53;;;4.63;;
4047;SDS011;2038;51.728;6.674;2023-06-14T04:05:24;5.23;;;4.67;;
4047;SDS011;2038;51.728;6.674;2023-06-14T04:07:51;7.73;;;5.07;;
4047;SDS011;2038;51.728;6.674;2023-06-14T04:10:20;10.30;;;4.70;;
4047;SDS011;2038;51.728;6.674;2023-06-14T04:12:47;9.83;;;4.67;;
4047;SDS011;2038;51.728;6.674;2023-06-14T04:15:13;11.20;;;4.50;;
4047;SDS011;2038;51.728;6.674;2023-06-14T04:17:39;6.03;;;3.97;;
4047;SDS011;2038;51.728;6.674;2023-06-14T04:20:07;14.83;;;5.00;;
4047;SDS011;2038;51.728;6.674;2023-06-14T04:22:34;6.73;;;4.80;;
4047;SDS011;2038;51.728;6.674;2023-06-14T04:25:01;9.20;;;5.20;;
4047;SDS011;2038;51.728;6.674;2023-06-14T04:27:28;6.83;;;4.67;;
4047;SDS011;2038;51.728;6.674;2023-06-14T04:29:56;4.00;;;3.60;;
4047;SDS011;2038;51.728;6.674;2023-06-14T04:32:24;9.60;;;4.40;;
4047;SDS011;2038;51.728;6.674;2023-06-14T04:34:57;7.33;;;3.97;;
4047;SDS011;2038;51.728;6.674;2023-06-14T04:37:27;6.07;;;4.63;;
4047;SDS011;2038;51.728;6.674;2023-06-14T04:39:55;6.83;;;3.90;;
4047;SDS011;2038;51.728;6.674;2023-06-14T04:42:22;5.77;;;4.57;;
4047;SDS011;2038;51.728;6.674;2023-06-14T04:44:50;5.40;;;4.60;;
4047;SDS011;2038;51.728;6.674;2023-06-14T04:47:20;5.87;;;3.43;;
4047;SDS011;2038;51.728;6.674;2023-06-14T04:49:46;7.70;;;4.93;;
4047;SDS011;2038;51.728;6.674;2023-06-14T04:52:13;6.23;;;4.43;;
4047;SDS011;2038;51.728;6.674;2023-06-14T04:54:40;6.43;;;4.27;;
4047;SDS011;2038;51.728;6.674;2023-06-14T04:57:07;5.90;;;4.13;;
4047;SDS011;2038;51.728;6.674;2023-06-14T04:59:42;9.10;;;4.17;;
4047;SDS011;2038;51.728;6.674;2023-06-14T05:02:09;9.50;;;4.20;;
4047;SDS011;2038;51.728;6.674;2023-06-14T05:04:36;4.73;;;3.80;;
4047;SDS011;2038;51.728;6.674;2023-06-14T05:07:06;6.17;;;4.03;;
4047;SDS011;2038;51.728;6.674;2023-06-14T05:09:34;9.20;;;4.40;;
4047;SDS011;2038;51.728;6.674;2023-06-14T05:12:01;4.30;;;3.90;;
4047;SDS011;2038;51.728;6.674;2023-06-14T05:14:28;6.70;;;4.13;;
4047;SDS011;2038;51.728;6.674;2023-06-14T05:16:54;7.77;;;4.90;;
4047;SDS011;2038;51.728;6.674;2023-06-14T05:19:22;10.00;;;3.73;;
4047;SDS011;2038;51.728;6.674;2023-06-14T05:21:48;13.37;;;3.77;;
4047;SDS011;2038;51.728;6.674;2023-06-14T05:24:15;8.97;;;3.67;;
4047;SDS011;2038;51.728;6.674;2023-06-14T05:26:42;12.80;;;4.60;;
4047;SDS011;2038;51.728;6.674;2023-06-14T05:29:09;11.53;;;4.83;;
4047;SDS011;2038;51.728;6.674;2023-06-14T05:31:35;6.73;;;4.13;;
4047;SDS011;2038;51.728;6.674;2023-06-14T05:34:01;6.60;;;4.37;;
4047;SDS011;2038;51.728;6.674;2023-06-14T05:36:28;5.70;;;3.73;;
4047;SDS011;2038;51.728;6.674;2023-06-14T05:38:54;6.60;;;3.37;;
4047;SDS011;2038;51.728;6.674;2023-06-14T05:41:24;3.90;;;3.37;;
4047;SDS011;2038;51.728;6.674;2023-06-14T05:43:54;6.97;;;4.50;;
4047;SDS011;2038;51.728;6.674;2023-06-14T05:46:21;11.20;;;4.13;;
4047;SDS011;2038;51.728;6.674;2023-06-14T05:48:53;9.97;;;4.43;;
4047;SDS011;2038;51.728;6.674;2023-06-14T05:51:20;8.47;;;3.10;;
4047;SDS011;2038;51.728;6.674;2023-06-14T05:53:49;8.70;;;3.80;;
4047;SDS011;2038;51.728;6.674;2023-06-14T05:56:16;12.93;;;4.03;;
4047;SDS011;2038;51.728;6.674;2023-06-14T05:58:44;8.30;;;4.30;;
4047;SDS011;2038;51.728;6.674;2023-06-14T06:01:11;5.43;;;3.53;;
4047;SDS011;2038;51.728;6.674;2023-06-14T06:03:38;6.73;;;3.40;;
4047;SDS011;2038;51.728;6.674;2023-06-14T06:06:04;5.13;;;3.13;;
4047;SDS011;2038;51.728;6.674;2023-06-14T06:08:30;5.00;;;3.83;;
4047;SDS011;2038;51.728;6.674;2023-06-14T06:10:58;4.40;;;3.60;;
4047;SDS011;2038;51.728;6.674;2023-06-14T06:13:25;10.27;;;3.87;;
4047;SDS011;2038;51.728;6.674;2023-06-14T06:15:51;6.70;;;3.53;;
4047;SDS011;2038;51.728;6.674;2023-06-14T06:18:18;11.30;;;3.80;;
4047;SDS011;2038;51.728;6.674;2023-06-14T06:20:44;8.87;;;3.47;;
4047;SDS011;2038;51.728;6.674;2023-06-14T06:23:12;7.60;;;3.80;;
4047;SDS011;2038;51.728;6.674;2023-06-14T06:25:38;6.90;;;3.30;;
4047;SDS011;2038;51.728;6.674;2023-06-14T06:28:05;5.20;;;3.73;;
4047;SDS011;2038;51.728;6.674;2023-06-14T06:30:31;5.93;;;3.53;;
4047;SDS011;2038;51.728;6.674;2023-06-14T06:32:57;6.27;;;3.20;;
4047;SDS011;2038;51.728;6.674;2023-06-14T06:35:24;5.40;;;3.10;;
4047;SDS011;2038;51.728;6.674;2023-06-14T06:37:50;4.10;;;3.40;;
4047;SDS011;2038;51.728;6.674;2023-06-14T06:40:17;4.73;;;2.80;;
4047;SDS011;2038;51.728;6.674;2023-06-14T06:42:43;3.93;;;3.00;;
4047;SDS011;2038;51.728;6.674;2023-06-14T06:45:10;3.77;;;2.57;;
4047;SDS011;2038;51.728;6.674;2023-06-14T06:47:36;5.60;;;2.77;;
4047;SDS011;2038;51.728;6.674;2023-06-14T06:50:02;2.90;;;2.60;;
4047;SDS011;2038;51.728;6.674;2023-06-14T06:52:29;4.07;;;2.80;;
4047;SDS011;2038;51.728;6.674;2023-06-14T06:54:55;3.17;;;2.87;;
4047;SDS011;2038;51.728;6.674;2023-06-14T06:57:22;5.53;;;2.70;;
4047;SDS011;2038;51.728;6.674;2023-06-14T06:59:49;4.90;;;2.77;;
4047;SDS011;2038;51.728;6.674;2023-06-14T07:02:15;2.90;;;2.60;;
4047;SDS011;2038;51.728;6.674;2023-06-14T07:04:42;4.20;;;2.60;;
4047;SDS011;2038;51.728;6.674;2023-06-14T07:07:08;3.20;;;2.90;;
4047;SDS011;2038;51.728;6.674;2023-06-14T07:09:37;8.00;;;2.90;;
4047;SDS011;2038;51.728;6.674;2023-06-14T07:12:03;3.63;;;2.90;;
4047;SDS011;2038;51.728;6.674;2023-06-14T07:14:30;8.30;;;3.20;;
4047;SDS011;2038;51.728;6.674;2023-06-14T07:16:56;6.17;;;2.80;;
4047;SDS011;2038;51.728;6.674;2023-06-14T07:19:22;3.87;;;2.43;;
4047;SDS011;2038;51.728;6.674;2023-06-14T07:21:48;6.93;;;3.30;;
4047;SDS011;2038;51.728;6.674;2023-06-14T07:24:15;5.33;;;2.80;;
4047;SDS011;2038;51.728;6.674;2023-06-14T07:26:41;3.90;;;2.30;;
4047;SDS011;2038;51.728;6.674;2023-06-14T07:29:07;6.90;;;3.57;;
4047;SDS011;2038;51.728;6.674;2023-06-14T07:31:33;6.20;;;3.10;;
4047;SDS011;2038;51.728;6.674;2023-06-14T07:33:59;3.30;;;2.87;;
4047;SDS011;2038;51.728;6.674;2023-06-14T07:36:26;6.77;;;3.50;;
4047;SDS011;2038;51.728;6.674;2023-06-14T07:38:52;4.60;;;2.87;;
4047;SDS011;2038;51.728;6.674;2023-06-14T07:41:18;5.57;;;3.17;;
4047;SDS011;2038;51.728;6.674;2023-06-14T07:43:45;6.50;;;2.93;;
4047;SDS011;2038;51.728;6.674;2023-06-14T07:46:11;2.37;;;2.17;;
4047;SDS011;2038;51.728;6.674;2023-06-14T07:48:37;4.97;;;3.30;;
4047;SDS011;2038;51.728;6.674;2023-06-14T07:51:04;16.30;;;3.23;;
4047;SDS011;2038;51.728;6.674;2023-06-14T07:53:30;4.17;;;2.73;;
4047;SDS011;2038;51.728;6.674;2023-06-14T07:55:56;9.83;;;3.10;;
4047;SDS011;2038;51.728;6.674;2023-06-14T07:58:23;3.93;;;2.57;;
4047;SDS011;2038;51.728;6.674;2023-06-14T08:00:49;3.70;;;2.83;;
4047;SDS011;2038;51.728;6.674;2023-06-14T08:03:16;3.50;;;2.67;;
4047;SDS011;2038;51.728;6.674;2023-06-14T08:05:43;8.73;;;2.67;;
4047;SDS011;2038;51.728;6.674;2023-06-14T08:08:09;9.90;;;2.93;;
4047;SDS011;2038;51.728;6.674;2023-06-14T08:10:35;8.23;;;2.77;;
4047;SDS011;2038;51.728;6.674;2023-06-14T08:13:01;2.70;;;2.40;;
4047;SDS011;2038;51.728;6.674;2023-06-14T08:15:28;3.90;;;2.30;;
4047;SDS011;2038;51.728;6.674;2023-06-14T08:17:54;6.80;;;2.70;;
4047;SDS011;2038;51.728;6.674;2023-06-14T08:20:21;4.43;;;3.13;;
4047;SDS011;2038;51.728;6.674;2023-06-14T08:22:47;3.93;;;2.97;;
4047;SDS011;2038;51.728;6.674;2023-06-14T08:25:13;2.93;;;2.50;;
4047;SDS011;2038;51.728;6.674;2023-06-14T08:27:39;6.60;;;2.83;;
4047;SDS011;2038;51.728;6.674;2023-06-14T08:30:06;3.67;;;2.37;;
4047;SDS011;2038;51.728;6.674;2023-06-14T08:32:33;4.63;;;2.77;;
4047;SDS011;2038;51.728;6.674;2023-06-14T08:34:59;5.40;;;2.57;;
4047;SDS011;2038;51.728;6.674;2023-06-14T08:37:25;3.13;;;2.57;;
4047;SDS011;2038;51.728;6.674;2023-06-14T08:39:52;3.63;;;2.20;;
4047;SDS011;2038;51.728;6.674;2023-06-14T08:42:18;2.63;;;2.37;;
4047;SDS011;2038;51.728;6.674;2023-06-14T08:44:46;11.10;;;2.30;;
4047;SDS011;2038;51.728;6.674;2023-06-14T08:47:12;5.13;;;2.00;;
4047;SDS011;2038;51.728;6.674;2023-06-14T08:49:42;5.33;;;1.67;;
4047;SDS011;2038;51.728;6.674;2023-06-14T08:52:12;4.80;;;2.50;;
4047;SDS011;2038;51.728;6.674;2023-06-14T08:54:44;8.37;;;3.80;;
4047;SDS011;2038;51.728;6.674;2023-06-14T08:57:13;3.80;;;2.23;;
4047;SDS011;2038;51.728;6.674;2023-06-14T08:59:42;3.27;;;2.13;;
4047;SDS011;2038;51.728;6.674;2023-06-14T09:02:14;2.47;;;2.00;;
4047;SDS011;2038;51.728;6.674;2023-06-14T09:04:42;6.40;;;2.70;;
4047;SDS011;2038;51.728;6.674;2023-06-14T09:07:09;5.50;;;2.30;;
4047;SDS011;2038;51.728;6.674;2023-06-14T09:09:40;9.93;;;2.20;;
4047;SDS011;2038;51.728;6.674;2023-06-14T09:12:15;2.57;;;1.93;;
4047;SDS011;2038;51.728;6.674;2023-06-14T09:14:41;4.07;;;2.00;;
4047;SDS011;2038;51.728;6.674;2023-06-14T09:17:08;2.97;;;2.50;;
4047;SDS011;2038;51.728;6.674;2023-06-14T09:19:38;4.03;;;2.20;;
4047;SDS011;2038;51.728;6.674;2023-06-14T09:22:04;2.30;;;2.00;;
4047;SDS011;2038;51.728;6.674;2023-06-14T09:24:30;4.10;;;2.87;;
4047;SDS011;2038;51.728;6.674;2023-06-14T09:26:57;4.63;;;2.13;;
4047;SDS011;2038;51.728;6.674;2023-06-14T09:29:23;3.60;;;2.20;;
4047;SDS011;2038;51.728;6.674;2023-06-14T09:31:50;2.60;;;2.03;;
4047;SDS011;2038;51.728;6.674;2023-06-14T09:34:17;8.47;;;2.90;;
4047;SDS011;2038;51.728;6.674;2023-06-14T09:36:45;7.00;;;2.20;;
4047;SDS011;2038;51.728;6.674;2023-06-14T09:39:12;2.50;;;1.83;;
4047;SDS011;2038;51.728;6.674;2023-06-14T09:41:43;3.27;;;2.80;;
4047;SDS011;2038;51.728;6.674;2023-06-14T09:44:10;2.53;;;2.33;;
4047;SDS011;2038;51.728;6.674;2023-06-14T09:46:39;5.03;;;2.50;;
4047;SDS011;2038;51.728;6.674;2023-06-14T09:49:05;3.97;;;2.60;;
4047;SDS011;2038;51.728;6.674;2023-06-14T09:51:32;2.90;;;2.20;;
4047;SDS011;2038;51.728;6.674;2023-06-14T09:54:03;2.47;;;1.90;;
4047;SDS011;2038;51.728;6.674;2023-06-14T09:56:35;4.80;;;2.10;;
4047;SDS011;2038;51.728;6.674;2023-06-14T09:59:10;4.10;;;2.07;;
4047;SDS011;2038;51.728;6.674;2023-06-14T10:01:43;5.43;;;2.40;;
4047;SDS011;2038;51.728;6.674;2023-06-14T10:04:10;2.73;;;1.80;;
4047;SDS011;2038;51.728;6.674;2023-06-14T10:06:40;3.27;;;2.60;;
4047;SDS011;2038;51.728;6.674;2023-06-14T10:09:13;8.40;;;2.20;;
4047;SDS011;2038;51.728;6.674;2023-06-14T10:11:39;2.13;;;1.90;;
4047;SDS011;2038;51.728;6.674;2023-06-14T10:14:09;4.90;;;1.97;;
4047;SDS011;2038;51.728;6.674;2023-06-14T10:16:38;6.13;;;2.40;;
4047;SDS011;2038;51.728;6.674;2023-06-14T10:22:11;2.53;;;1.87;;
4047;SDS011;2038;51.728;6.674;2023-06-14T10:24:45;2.23;;;1.63;;
4047;SDS011;2038;51.728;6.674;2023-06-14T10:27:13;4.87;;;2.33;;
4047;SDS011;2038;51.728;6.674;2023-06-14T10:32:24;3.03;;;2.13;;
4047;SDS011;2038;51.728;6.674;2023-06-14T10:34:56;4.80;;;2.23;;
4047;SDS011;2038;51.728;6.674;2023-06-14T10:37:30;3.33;;;2.10;;
4047;SDS011;2038;51.728;6.674;2023-06-14T10:39:56;4.57;;;1.80;;
4047;SDS011;2038;51.728;6.674;2023-06-14T10:42:27;8.03;;;2.00;;
4047;SDS011;2038;51.728;6.674;2023-06-14T10:44:57;1.87;;;1.77;;
4047;SDS011;2038;51.728;6.674;2023-06-14T10:47:29;5.70;;;1.90;;
4047;SDS011;2038;51.728;6.674;2023-06-14T10:50:06;4.13;;;1.63;;
4047;SDS011;2038;51.728;6.674;2023-06-14T10:52:38;2.87;;;1.97;;
4047;SDS011;2038;51.728;6.674;2023-06-14T10:55:07;3.40;;;1.57;;
4047;SDS011;2038;51.728;6.674;2023-06-14T10:57:46;3.07;;;1.90;;
4047;SDS011;2038;51.728;6.674;2023-06-14T11:00:17;6.20;;;1.60;;
4047;SDS011;2038;51.728;6.674;2023-06-14T11:06:12;9.13;;;1.80;;
4047;SDS011;2038;51.728;6.674;2023-06-14T11:08:46;1.67;;;1.40;;
4047;SDS011;2038;51.728;6.674;2023-06-14T11:11:38;2.50;;;1.40;;
4047;SDS011;2038;51.728;6.674;2023-06-14T11:14:09;1.27;;;1.10;;
4047;SDS011;2038;51.728;6.674;2023-06-14T11:16:36;2.87;;;1.60;;
4047;SDS011;2038;51.728;6.674;2023-06-14T11:19:02;1.60;;;1.17;;
4047;SDS011;2038;51.728;6.674;2023-06-14T11:21:29;2.80;;;1.77;;
4047;SDS011;2038;51.728;6.674;2023-06-14T11:23:58;3.47;;;1.40;;
4047;SDS011;2038;51.728;6.674;2023-06-14T11:26:31;2.13;;;1.10;;
4047;SDS011;2038;51.728;6.674;2023-06-14T11:28:59;9.30;;;1.70;;
4047;SDS011;2038;51.728;6.674;2023-06-14T11:31:26;2.20;;;1.50;;
4047;SDS011;2038;51.728;6.674;2023-06-14T11:33:54;2.80;;;1.50;;
4047;SDS011;2038;51.728;6.674;2023-06-14T11:36:22;2.37;;;2.13;;
4047;SDS011;2038;51.728;6.674;2023-06-14T11:38:59;2.10;;;1.60;;
4047;SDS011;2038;51.728;6.674;2023-06-14T11:41:37;2.53;;;1.40;;
4047;SDS011;2038;51.728;6.674;2023-06-14T11:44:10;1.40;;;1.10;;
4047;SDS011;2038;51.728;6.674;2023-06-14T11:46:37;3.33;;;1.60;;
4047;SDS011;2038;51.728;6.674;2023-06-14T11:49:04;2.87;;;1.57;;
4047;SDS011;2038;51.728;6.674;2023-06-14T11:51:32;3.87;;;1.50;;
4047;SDS011;2038;51.728;6.674;2023-06-14T11:54:01;5.13;;;1.63;;
4047;SDS011;2038;51.728;6.674;2023-06-14T11:56:30;2.20;;;1.60;;
4047;SDS011;2038;51.728;6.674;2023-06-14T11:58:57;5.00;;;2.10;;
4047;SDS011;2038;51.728;6.674;2023-06-14T12:01:23;7.07;;;1.40;;
4047;SDS011;2038;51.728;6.674;2023-06-14T12:03:50;4.90;;;1.70;;
4047;SDS011;2038;51.728;6.674;2023-06-14T12:06:25;6.20;;;2.10;;
4047;SDS011;2038;51.728;6.674;2023-06-14T12:09:04;2.97;;;1.47;;
4047;SDS011;2038;51.728;6.674;2023-06-14T12:11:37;1.90;;;1.70;;
4047;SDS011;2038;51.728;6.674;2023-06-14T12:14:04;3.03;;;1.80;;
4047;SDS011;2038;51.728;6.674;2023-06-14T12:16:31;1.97;;;1.30;;
4047;SDS011;2038;51.728;6.674;2023-06-14T12:19:08;7.97;;;2.00;;
4047;SDS011;2038;51.728;6.674;2023-06-14T12:21:40;10.60;;;2.47;;
4047;SDS011;2038;51.728;6.674;2023-06-14T12:24:12;3.30;;;1.50;;
4047;SDS011;2038;51.728;6.674;2023-06-14T12:26:38;7.53;;;1.70;;
4047;SDS011;2038;51.728;6.674;2023-06-14T12:29:06;3.30;;;1.60;;
4047;SDS011;2038;51.728;6.674;2023-06-14T12:31:33;2.80;;;1.63;;
4047;SDS011;2038;51.728;6.674;2023-06-14T12:33:59;2.67;;;1.47;;
4047;SDS011;2038;51.728;6.674;2023-06-14T12:36:26;3.40;;;1.40;;
4047;SDS011;2038;51.728;6.674;2023-06-14T12:38:52;7.07;;;2.47;;
4047;SDS011;2038;51.728;6.674;2023-06-14T12:41:19;1.80;;;1.60;;
4047;SDS011;2038;51.728;6.674;2023-06-14T12:43:47;2.40;;;1.90;;
4047;SDS011;2038;51.728;6.674;2023-06-14T12:46:13;3.00;;;1.20;;
4047;SDS011;2038;51.728;6.674;2023-06-14T12:48:39;3.93;;;1.83;;
4047;SDS011;2038;51.728;6.674;2023-06-14T12:51:06;4.77;;;2.13;;
4047;SDS011;2038;51.728;6.674;2023-06-14T12:53:32;3.47;;;1.60;;
4047;SDS011;2038;51.728;6.674;2023-06-14T12:55:58;1.57;;;1.30;;
4047;SDS011;2038;51.728;6.674;2023-06-14T12:58:24;3.80;;;1.60;;
4047;SDS011;2038;51.728;6.674;2023-06-14T13:00:50;3.43;;;1.93;;
4047;SDS011;2038;51.728;6.674;2023-06-14T13:03:17;1.67;;;1.57;;
4047;SDS011;2038;51.728;6.674;2023-06-14T13:05:43;5.00;;;1.67;;
4047;SDS011;2038;51.728;6.674;2023-06-14T13:08:09;2.93;;;1.47;;
4047;SDS011;2038;51.728;6.674;2023-06-14T13:10:36;2.70;;;1.60;;
4047;SDS011;2038;51.728;6.674;2023-06-14T13:13:02;1.83;;;1.60;;
4047;SDS011;2038;51.728;6.674;2023-06-14T13:15:29;5.67;;;2.07;;
4047;SDS011;2038;51.728;6.674;2023-06-14T13:17:55;6.37;;;2.30;;
4047;SDS011;2038;51.728;6.674;2023-06-14T13:20:22;2.33;;;2.13;;
4047;SDS011;2038;51.728;6.674;2023-06-14T13:22:48;4.90;;;1.67;;
4047;SDS011;2038;51.728;6.674;2023-06-14T13:25:14;4.00;;;1.80;;
4047;SDS011;2038;51.728;6.674;2023-06-14T13:27:40;1.67;;;1.57;;
4047;SDS011;2038;51.728;6.674;2023-06-14T13:30:07;7.67;;;2.80;;
4047;SDS011;2038;51.728;6.674;2023-06-14T13:32:34;2.43;;;1.93;;
4047;SDS011;2038;51.728;6.674;2023-06-14T13:35:00;2.23;;;2.00;;
4047;SDS011;2038;51.728;6.674;2023-06-14T13:37:27;3.37;;;2.03;;
4047;SDS011;2038;51.728;6.674;2023-06-14T13:39:53;1.70;;;1.60;;
4047;SDS011;2038;51.728;6.674;2023-06-14T13:42:20;5.03;;;2.10;;
4047;SDS011;2038;51.728;6.674;2023-06-14T13:44:46;1.93;;;1.73;;
4047;SDS011;2038;51.728;6.674;2023-06-14T13:47:12;2.63;;;1.73;;
4047;SDS011;2038;51.728;6.674;2023-06-14T13:49:38;3.03;;;1.83;;
4047;SDS011;2038;51.728;6.674;2023-06-14T13:52:05;4.10;;;1.90;;
4047;SDS011;2038;51.728;6.674;2023-06-14T13:54:32;4.77;;;2.33;;
4047;SDS011;2038;51.728;6.674;2023-06-14T13:56:58;6.90;;;2.43;;
4047;SDS011;2038;51.728;6.674;2023-06-14T13:59:24;8.20;;;2.10;;
4047;SDS011;2038;51.728;6.674;2023-06-14T14:01:51;2.97;;;2.30;;
4047;SDS011;2038;51.728;6.674;2023-06-14T14:04:17;5.00;;;2.00;;
4047;SDS011;2038;51.728;6.674;2023-06-14T14:06:43;4.07;;;2.40;;
4047;SDS011;2038;51.728;6.674;2023-06-14T14:09:10;4.60;;;2.73;;
4047;SDS011;2038;51.728;6.674;2023-06-14T14:11:37;3.40;;;2.70;;
4047;SDS011;2038;51.728;6.674;2023-06-14T14:14:04;2.17;;;1.97;;
4047;SDS011;2038;51.728;6.674;2023-06-14T14:16:31;4.40;;;2.57;;
4047;SDS011;2038;51.728;6.674;2023-06-14T14:18:57;7.70;;;2.30;;
4047;SDS011;2038;51.728;6.674;2023-06-14T14:21:23;2.67;;;2.43;;
4047;SDS011;2038;51.728;6.674;2023-06-14T14:23:50;2.57;;;2.37;;
4047;SDS011;2038;51.728;6.674;2023-06-14T14:26:16;5.43;;;2.57;;
4047;SDS011;2038;51.728;6.674;2023-06-14T14:28:42;3.00;;;2.77;;
4047;SDS011;2038;51.728;6.674;2023-06-14T14:31:09;9.20;;;2.53;;
4047;SDS011;2038;51.728;6.674;2023-06-14T14:33:35;5.43;;;2.90;;
4047;SDS011;2038;51.728;6.674;2023-06-14T14:36:01;4.50;;;2.77;;
4047;SDS011;2038;51.728;6.674;2023-06-14T14:38:29;3.10;;;2.80;;
4047;SDS011;2038;51.728;6.674;2023-06-14T14:40:55;3.33;;;2.53;;
4047;SDS011;2038;51.728;6.674;2023-06-14T14:43:21;3.13;;;2.83;;
4047;SDS011;2038;51.728;6.674;2023-06-14T14:45:47;2.70;;;2.50;;
4047;SDS011;2038;51.728;6.674;2023-06-14T14:48:13;2.97;;;2.67;;
4047;SDS011;2038;51.728;6.674;2023-06-14T14:50:40;4.13;;;3.00;;
4047;SDS011;2038;51.728;6.674;2023-06-14T14:53:06;3.67;;;2.47;;
4047;SDS011;2038;51.728;6.674;2023-06-14T14:55:32;5.43;;;2.33;;
4047;SDS011;2038;51.728;6.674;2023-06-14T14:58:01;3.20;;;2.73;;
4047;SDS011;2038;51.728;6.674;2023-06-14T15:00:28;5.10;;;2.77;;
4047;SDS011;2038;51.728;6.674;2023-06-14T15:02:54;6.50;;;3.17;;
4047;SDS011;2038;51.728;6.674;2023-06-14T15:05:20;6.80;;;2.97;;
4047;SDS011;2038;51.728;6.674;2023-06-14T15:07:46;2.90;;;2.70;;
4047;SDS011;2038;51.728;6.674;2023-06-14T15:10:13;5.10;;;3.27;;
4047;SDS011;2038;51.728;6.674;2023-06-14T15:12:40;5.33;;;3.20;;
4047;SDS011;2038;51.728;6.674;2023-06-14T15:15:06;4.13;;;3.00;;
4047;SDS011;2038;51.728;6.674;2023-06-14T15:17:34;6.00;;;2.70;;
4047;SDS011;2038;51.728;6.674;2023-06-14T15:20:00;4.90;;;3.03;;
4047;SDS011;2038;51.728;6.674;2023-06-14T15:22:27;2.70;;;2.00;;
4047;SDS011;2038;51.728;6.674;2023-06-14T15:24:53;4.27;;;2.70;;
4047;SDS011;2038;51.728;6.674;2023-06-14T15:27:20;4.83;;;2.83;;
4047;SDS011;2038;51.728;6.674;2023-06-14T15:29:46;8.07;;;3.10;;
4047;SDS011;2038;51.728;6.674;2023-06-14T15:32:12;3.07;;;2.70;;
4047;SDS011;2038;51.728;6.674;2023-06-14T15:34:38;5.53;;;3.10;;